createdAt,value
2023-05-21T00:02:11.928Z,15.13
2023-05-21T00:05:15.348Z,18.65
2023-05-21T00:08:16.782Z,16.58
2023-05-21T00:11:18.182Z,16.67
2023-05-21T00:14:19.539Z,16.17
2023-05-21T00:17:20.894Z,17.30
2023-05-21T00:20:23.204Z,18.05
2023-05-21T00:23:26.175Z,17.80
2023-05-21T00:26:27.651Z,16.60
2023-05-21T00:29:30.074Z,15.60
2023-05-21T00:32:31.505Z,16.25
2023-05-21T00:35:32.920Z,15.95
2023-05-21T00:38:34.581Z,17.73
2023-05-21T00:41:35.912Z,14.70
2023-05-21T00:44:37.248Z,16.33
2023-05-21T00:47:39.356Z,17.48
2023-05-21T00:50:41.534Z,17.63
2023-05-21T00:53:44.460Z,17.17
2023-05-21T00:56:45.992Z,15.88
2023-05-21T00:59:48.290Z,16.33
2023-05-21T01:02:50.620Z,16.02
2023-05-21T01:05:53.052Z,15.30
2023-05-21T01:08:56.225Z,16.67
2023-05-21T01:11:57.827Z,17.52
2023-05-21T01:15:05.513Z,17.17
2023-05-21T01:18:07.722Z,17.00
2023-05-21T01:21:09.720Z,16.35
2023-05-21T01:24:11.046Z,16.90
2023-05-21T01:27:12.350Z,16.48
2023-05-21T01:30:13.971Z,15.57
2023-05-21T01:33:17.269Z,17.02
2023-05-21T01:36:24.070Z,16.25
2023-05-21T01:39:32.593Z,17.17
2023-05-21T01:42:35.456Z,18.63
2023-05-21T01:45:38.794Z,16.70
2023-05-21T01:48:41.250Z,17.45
2023-05-21T01:51:42.738Z,16.23
2023-05-21T01:54:44.133Z,14.55
2023-05-21T01:57:45.562Z,16.00
2023-05-21T02:00:47.229Z,16.55
2023-05-21T02:03:49.321Z,15.02
2023-05-21T02:06:50.908Z,17.10
2023-05-21T02:09:52.230Z,14.88
2023-05-21T02:12:53.563Z,15.93
2023-05-21T02:15:56.238Z,14.25
2023-05-21T02:18:57.956Z,14.80
2023-05-21T02:21:59.304Z,18.33
2023-05-21T02:25:00.643Z,15.90
2023-05-21T02:28:02.461Z,15.80
2023-05-21T02:31:04.014Z,15.68
2023-05-21T02:34:05.554Z,15.15
2023-05-21T02:37:06.919Z,16.92
2023-05-21T02:40:09.845Z,17.70
2023-05-21T02:43:11.173Z,17.95
2023-05-21T02:46:12.537Z,14.60
2023-05-21T02:49:13.969Z,14.50
2023-05-21T02:52:15.249Z,14.68
2023-05-21T02:55:16.524Z,15.50
2023-05-21T02:58:17.859Z,15.25
2023-05-21T03:01:19.223Z,16.13
2023-05-21T03:04:23.325Z,16.20
2023-05-21T03:07:24.599Z,17.10
2023-05-21T03:10:25.961Z,13.75
2023-05-21T03:13:27.388Z,15.48
2023-05-21T03:16:28.839Z,13.98
2023-05-21T03:19:34.420Z,13.13
2023-05-21T03:22:37.483Z,15.52
2023-05-21T03:25:38.921Z,15.35
2023-05-21T03:28:40.272Z,14.55
2023-05-21T03:31:41.677Z,17.08
2023-05-21T03:34:43.019Z,16.15
2023-05-21T03:37:44.382Z,15.40
2023-05-21T03:40:45.859Z,15.80
2023-05-21T03:43:47.221Z,13.45
2023-05-21T03:46:48.539Z,15.75
2023-05-21T03:49:49.907Z,16.27
2023-05-21T03:52:51.204Z,15.18
2023-05-21T03:55:55.259Z,16.17
2023-05-21T04:01:57.973Z,14.02
2023-05-21T04:04:59.321Z,17.42
2023-05-21T04:08:01.004Z,12.93
2023-05-21T04:11:02.320Z,16.88
2023-05-21T04:14:03.599Z,15.13
2023-05-21T04:17:05.324Z,17.48
2023-05-21T04:20:07.046Z,17.10
2023-05-21T04:23:08.435Z,23.95
2023-05-21T04:26:09.737Z,15.23
2023-05-21T04:29:11.513Z,18.00
2023-05-21T04:32:15.091Z,16.08
2023-05-21T04:35:16.425Z,15.38
2023-05-21T04:38:20.771Z,16.10
2023-05-21T04:41:22.159Z,16.35
2023-05-21T04:44:23.476Z,15.60
2023-05-21T04:47:24.825Z,16.02
2023-05-21T04:50:26.139Z,13.73
2023-05-21T04:53:27.422Z,15.90
2023-05-21T04:56:29.516Z,13.77
2023-05-21T04:59:31.909Z,15.95
2023-05-21T05:02:33.323Z,14.65
2023-05-21T05:05:34.964Z,16.02
2023-05-21T05:08:36.556Z,15.25
2023-05-21T05:11:37.897Z,14.48
2023-05-21T05:14:39.195Z,15.35
2023-05-21T05:17:40.587Z,16.05
2023-05-21T05:20:41.884Z,14.90
2023-05-21T05:23:43.141Z,15.25
2023-05-21T05:26:44.471Z,14.13
2023-05-21T05:29:46.748Z,13.57
2023-05-21T05:32:48.062Z,15.27
2023-05-21T05:35:49.384Z,16.92
2023-05-21T05:38:51.251Z,15.57
2023-05-21T05:41:52.612Z,14.93
2023-05-21T05:44:54.011Z,15.45
2023-05-21T05:47:55.387Z,14.88
2023-05-21T05:50:57.137Z,15.13
2023-05-21T05:53:58.464Z,14.30
2023-05-21T05:56:59.805Z,13.23
2023-05-21T06:00:01.224Z,16.77
2023-05-21T06:03:02.665Z,14.45
2023-05-21T06:06:04.155Z,14.80
2023-05-21T06:09:05.502Z,14.82
2023-05-21T06:12:07.047Z,13.65
2023-05-21T06:15:08.661Z,13.35
2023-05-21T06:18:10.116Z,14.60
2023-05-21T06:21:11.550Z,13.95
2023-05-21T06:24:12.847Z,14.43
2023-05-21T06:27:14.226Z,15.32
2023-05-21T06:30:15.594Z,16.45
2023-05-21T06:33:17.023Z,14.50
2023-05-21T06:36:18.473Z,15.35
2023-05-21T06:39:19.933Z,12.60
2023-05-21T06:42:21.342Z,12.07
2023-05-21T06:45:23.250Z,11.27
2023-05-21T06:48:24.576Z,14.38
2023-05-21T06:51:26.033Z,13.85
2023-05-21T06:54:27.361Z,14.00
2023-05-21T06:57:28.696Z,13.13
2023-05-21T07:00:30.024Z,12.13
2023-05-21T07:03:31.529Z,13.65
2023-05-21T07:06:33.066Z,11.27
2023-05-21T07:09:34.357Z,15.10
2023-05-21T07:12:35.797Z,13.38
2023-05-21T07:15:37.396Z,10.48
2023-05-21T07:18:38.975Z,12.48
2023-05-21T07:21:40.292Z,12.23
2023-05-21T07:24:41.614Z,12.23
2023-05-21T07:27:42.920Z,11.77
2023-05-21T07:30:44.290Z,11.20
2023-05-21T07:33:45.631Z,11.13
2023-05-21T07:36:47.073Z,10.13
2023-05-21T07:39:48.356Z,11.68
2023-05-21T07:42:49.683Z,12.18
2023-05-21T07:45:51.203Z,11.70
2023-05-21T07:48:52.521Z,11.27
2023-05-21T07:51:53.837Z,11.18
2023-05-21T07:54:55.152Z,11.07
2023-05-21T07:57:56.563Z,11.32
2023-05-21T08:00:58.401Z,10.93
2023-05-21T08:04:05.840Z,11.55
2023-05-21T08:07:07.511Z,10.40
2023-05-21T08:10:09.064Z,11.52
2023-05-21T08:13:11.617Z,10.50
2023-05-21T08:16:13.103Z,9.88
2023-05-21T08:19:14.557Z,12.05
2023-05-21T08:22:16.013Z,11.00
2023-05-21T08:25:17.353Z,10.63
2023-05-21T08:28:18.688Z,10.30
2023-05-21T08:31:19.996Z,10.95
2023-05-21T08:34:21.390Z,11.15
2023-05-21T08:37:22.818Z,10.68
2023-05-21T08:40:24.110Z,9.73
2023-05-21T08:43:29.154Z,10.63
2023-05-21T08:46:32.591Z,10.23
2023-05-21T08:49:34.534Z,11.70
2023-05-21T08:52:36.072Z,10.15
2023-05-21T08:55:38.847Z,10.45
2023-05-21T08:58:42.559Z,9.82
2023-05-21T09:01:45.971Z,10.43
2023-05-21T09:04:49.206Z,10.68
2023-05-21T09:08:00.921Z,12.85
2023-05-21T09:11:03.277Z,10.27
2023-05-21T09:14:05.438Z,10.25
2023-05-21T09:17:06.808Z,9.68
2023-05-21T09:20:17.577Z,10.18
2023-05-21T09:23:19.159Z,8.93
2023-05-21T09:26:21.633Z,9.50
2023-05-21T09:29:23.000Z,12.02
2023-05-21T09:32:24.323Z,9.18
2023-05-21T09:35:25.734Z,10.20
2023-05-21T09:38:27.269Z,9.27
2023-05-21T09:41:33.361Z,7.93
2023-05-21T09:44:35.296Z,11.38
2023-05-21T09:47:43.673Z,8.73
2023-05-21T09:50:45.807Z,8.80
2023-05-21T09:53:59.534Z,8.52
2023-05-21T09:57:04.196Z,8.43
2023-05-21T10:00:06.500Z,7.28
2023-05-21T10:03:09.836Z,7.53
2023-05-21T10:06:11.554Z,8.15
2023-05-21T10:09:14.732Z,7.78
2023-05-21T10:12:17.804Z,7.80
2023-05-21T10:15:22.023Z,7.82
2023-05-21T10:18:23.655Z,7.88
2023-05-21T10:21:26.112Z,7.43
2023-05-21T10:24:27.831Z,7.75
2023-05-21T10:27:32.019Z,9.50
2023-05-21T10:30:34.567Z,7.10
2023-05-21T10:33:36.527Z,9.00
2023-05-21T10:36:38.252Z,7.80
2023-05-21T10:39:39.721Z,8.07
2023-05-21T10:42:41.016Z,7.70
2023-05-21T10:45:50.296Z,7.68
2023-05-21T10:51:58.594Z,7.50
2023-05-21T10:55:21.221Z,7.70
2023-05-21T10:58:41.051Z,8.55
2023-05-21T11:01:42.592Z,8.68
2023-05-21T11:04:49.101Z,9.88
2023-05-21T11:07:50.511Z,8.80
2023-05-21T11:10:55.729Z,7.88
2023-05-21T11:13:58.401Z,7.82
2023-05-21T11:16:59.947Z,7.55
2023-05-21T11:20:05.060Z,7.60
2023-05-21T11:23:06.391Z,7.10
2023-05-21T11:26:07.701Z,9.10
2023-05-21T11:29:09.408Z,8.65
2023-05-21T11:32:11.824Z,7.68
2023-05-21T11:35:13.898Z,8.55
2023-05-21T11:38:15.278Z,8.80
2023-05-21T11:41:19.907Z,7.03
2023-05-21T11:44:37.117Z,7.65
2023-05-21T11:47:40.034Z,7.40
2023-05-21T11:50:42.413Z,7.55
2023-05-21T11:53:44.303Z,6.30
2023-05-21T11:56:46.071Z,8.05
2023-05-21T11:59:53.464Z,6.82
2023-05-21T12:02:57.389Z,6.97
2023-05-21T12:06:05.457Z,9.20
2023-05-21T12:09:07.047Z,7.38
2023-05-21T12:12:08.881Z,6.60
2023-05-21T12:15:10.597Z,6.20
2023-05-21T12:18:16.549Z,7.18
2023-05-21T12:21:18.203Z,7.85
2023-05-21T12:24:19.538Z,8.80
2023-05-21T12:27:21.596Z,22.88
2023-05-21T12:30:22.890Z,21.17
2023-05-21T12:33:25.970Z,17.42
2023-05-21T12:36:28.274Z,6.13
2023-05-21T12:39:30.190Z,16.40
2023-05-21T12:42:35.543Z,6.00
2023-05-21T12:45:39.397Z,10.95
2023-05-21T12:48:42.642Z,7.53
2023-05-21T12:51:45.061Z,6.82
2023-05-21T12:54:50.423Z,6.97
2023-05-21T12:57:59.852Z,6.95
2023-05-21T13:01:03.774Z,7.53
2023-05-21T13:04:07.891Z,6.13
2023-05-21T13:07:09.278Z,7.03
2023-05-21T13:10:11.226Z,6.05
2023-05-21T13:13:12.569Z,6.38
2023-05-21T13:16:13.912Z,6.35
2023-05-21T13:19:15.831Z,5.88
2023-05-21T13:22:17.226Z,6.80
2023-05-21T13:25:21.011Z,5.50
2023-05-21T13:28:23.641Z,6.72
2023-05-21T13:34:26.140Z,6.82
2023-05-21T13:37:27.502Z,5.60
2023-05-21T13:40:28.939Z,5.70
2023-05-21T13:43:30.507Z,4.93
2023-05-21T13:46:31.920Z,5.05
2023-05-21T13:49:33.825Z,6.15
2023-05-21T13:52:35.432Z,6.13
2023-05-21T13:55:36.780Z,5.95
2023-05-21T13:58:40.534Z,6.60
2023-05-21T14:01:41.923Z,5.72
2023-05-21T14:04:43.233Z,6.38
2023-05-21T14:07:45.348Z,6.88
2023-05-21T14:10:47.784Z,7.30
2023-05-21T14:13:49.171Z,6.28
2023-05-21T14:16:51.144Z,6.07
2023-05-21T14:19:52.752Z,6.13
2023-05-21T14:22:54.232Z,6.28
2023-05-21T14:25:55.496Z,6.80
2023-05-21T14:28:56.816Z,5.97
2023-05-21T14:31:58.145Z,5.50
2023-05-21T14:35:00.010Z,6.25
2023-05-21T14:38:01.377Z,6.45
2023-05-21T14:41:02.978Z,5.47
2023-05-21T14:44:04.402Z,6.55
2023-05-21T14:47:05.932Z,5.68
2023-05-21T14:50:07.474Z,5.97
2023-05-21T14:53:09.791Z,5.47
2023-05-21T14:56:11.125Z,6.70
2023-05-21T14:59:12.841Z,7.25
2023-05-21T15:02:14.320Z,5.68
2023-05-21T15:05:15.752Z,5.72
2023-05-21T15:08:17.066Z,6.72
2023-05-21T15:11:18.464Z,7.47
2023-05-21T15:14:20.666Z,8.10
2023-05-21T15:17:21.989Z,7.35
2023-05-21T15:20:23.366Z,6.60
2023-05-21T15:23:24.829Z,6.32
2023-05-21T15:26:26.957Z,7.55
2023-05-21T15:29:28.294Z,7.53
2023-05-21T15:32:30.586Z,9.05
2023-05-21T15:35:32.052Z,6.32
2023-05-21T15:38:33.500Z,8.00
2023-05-21T15:41:35.354Z,8.02
2023-05-21T15:44:37.046Z,7.82
2023-05-21T15:47:42.712Z,9.18
2023-05-21T15:50:44.332Z,7.05
2023-05-21T15:53:45.744Z,7.55
2023-05-21T15:56:47.054Z,8.20
2023-05-21T15:59:50.299Z,6.95
2023-05-21T16:05:52.976Z,6.20
2023-05-21T16:08:54.318Z,6.32
2023-05-21T16:11:55.733Z,6.50
2023-05-21T16:14:57.086Z,6.30
2023-05-21T16:17:58.407Z,6.60
2023-05-21T16:20:59.763Z,8.32
2023-05-21T16:24:01.463Z,7.22
2023-05-21T16:27:02.852Z,6.20
2023-05-21T16:30:04.420Z,7.55
2023-05-21T16:33:05.899Z,6.60
2023-05-21T16:36:07.401Z,7.07
2023-05-21T16:39:08.744Z,7.65
2023-05-21T16:42:10.045Z,7.93
2023-05-21T16:45:15.671Z,8.23
2023-05-21T16:48:17.139Z,8.23
2023-05-21T16:51:18.531Z,6.35
2023-05-21T16:54:19.845Z,8.30
2023-05-21T16:57:21.265Z,7.13
2023-05-21T17:00:22.728Z,8.70
2023-05-21T17:03:24.329Z,7.30
2023-05-21T17:06:25.816Z,7.80
2023-05-21T17:09:27.236Z,8.65
2023-05-21T17:12:28.574Z,7.10
2023-05-21T17:15:29.896Z,8.00
2023-05-21T17:18:31.394Z,8.20
2023-05-21T17:21:33.409Z,7.15
2023-05-21T17:24:34.826Z,6.63
2023-05-21T17:27:36.333Z,9.02
2023-05-21T17:30:37.734Z,8.15
2023-05-21T17:33:39.120Z,7.38
2023-05-21T17:36:40.499Z,8.70
2023-05-21T17:39:41.860Z,7.68
2023-05-21T17:42:43.187Z,7.80
2023-05-21T17:45:44.568Z,7.75
2023-05-21T17:48:45.952Z,7.40
2023-05-21T17:51:47.967Z,7.43
2023-05-21T17:54:49.426Z,8.60
2023-05-21T17:57:50.876Z,7.97
2023-05-21T18:00:52.253Z,8.05
2023-05-21T18:03:53.671Z,8.40
2023-05-21T18:06:55.158Z,7.85
2023-05-21T18:09:56.543Z,9.73
2023-05-21T18:12:57.890Z,9.93
2023-05-21T18:15:59.245Z,8.50
2023-05-21T18:19:05.971Z,8.45
2023-05-21T18:22:07.692Z,10.10
2023-05-21T18:25:09.441Z,7.97
2023-05-21T18:28:10.850Z,8.60
2023-05-21T18:31:12.249Z,9.80
2023-05-21T18:34:13.686Z,9.57
2023-05-21T18:37:16.900Z,9.45
2023-05-21T18:40:18.802Z,8.77
2023-05-21T18:43:20.134Z,9.15
2023-05-21T18:46:21.694Z,9.93
2023-05-21T18:49:23.404Z,8.45
2023-05-21T18:52:24.872Z,9.18
2023-05-21T18:55:26.510Z,8.20
2023-05-21T18:58:29.294Z,9.13
2023-05-21T19:01:30.829Z,8.32
2023-05-21T19:04:32.211Z,9.38
2023-05-21T19:07:33.759Z,10.68
2023-05-21T19:10:35.348Z,8.70
2023-05-21T19:13:36.936Z,9.57
2023-05-21T19:16:38.396Z,8.63
2023-05-21T19:19:40.026Z,10.93
2023-05-21T19:22:41.367Z,9.18
2023-05-21T19:25:42.729Z,9.60
2023-05-21T19:28:44.541Z,9.02
2023-05-21T19:31:45.881Z,10.30
2023-05-21T19:34:48.212Z,10.88
2023-05-21T19:37:49.890Z,9.77
2023-05-21T19:40:51.282Z,11.27
2023-05-21T19:43:52.613Z,10.60
2023-05-21T19:46:54.492Z,10.05
2023-05-21T19:49:56.418Z,10.40
2023-05-21T19:52:57.734Z,9.70
2023-05-21T19:55:59.141Z,12.93
2023-05-21T19:59:00.635Z,10.15
2023-05-21T20:02:01.992Z,9.90
2023-05-21T20:05:03.387Z,9.93
2023-05-21T20:08:05.060Z,11.95
2023-05-21T20:11:06.489Z,11.35
2023-05-21T20:14:07.906Z,11.35
2023-05-21T20:17:09.451Z,9.98
2023-05-21T20:20:11.758Z,10.32
2023-05-21T20:23:13.601Z,10.32
2023-05-21T20:26:15.752Z,11.75
2023-05-21T20:29:17.157Z,10.98
2023-05-21T20:32:18.627Z,10.80
2023-05-21T20:35:20.086Z,9.43
2023-05-21T20:38:21.571Z,9.45
2023-05-21T20:41:25.262Z,9.73
2023-05-21T20:44:27.508Z,9.25
2023-05-21T20:47:31.893Z,9.85
2023-05-21T20:50:34.759Z,8.93
2023-05-21T20:53:36.885Z,12.05
2023-05-21T20:56:42.072Z,12.27
2023-05-21T20:59:43.799Z,13.80
2023-05-21T21:02:45.751Z,10.65
2023-05-21T21:05:47.282Z,10.27
2023-05-21T21:08:50.162Z,11.65
2023-05-21T21:11:51.542Z,11.27
2023-05-21T21:14:53.027Z,9.80
2023-05-21T21:17:54.694Z,11.15
2023-05-21T21:20:56.133Z,11.57
2023-05-21T21:23:57.506Z,9.68
2023-05-21T21:26:58.817Z,11.15
2023-05-21T21:30:00.136Z,9.38
2023-05-21T21:33:01.541Z,9.32
2023-05-21T21:36:03.168Z,10.35
2023-05-21T21:39:04.550Z,10.57
2023-05-21T21:42:06.176Z,9.75
2023-05-21T21:45:08.011Z,9.77
2023-05-21T21:48:09.335Z,9.70
2023-05-21T21:51:10.794Z,12.93
2023-05-21T21:54:12.232Z,9.48
2023-05-21T21:57:13.619Z,9.88
2023-05-21T22:00:17.052Z,10.32
2023-05-21T22:03:18.727Z,10.82
2023-05-21T22:06:20.059Z,9.95
2023-05-21T22:09:22.551Z,11.00
2023-05-21T22:12:23.953Z,10.60
2023-05-21T22:15:28.483Z,10.80
2023-05-21T22:18:40.350Z,10.40
2023-05-21T22:21:43.222Z,10.27
2023-05-21T22:24:44.567Z,11.52
2023-05-21T22:27:45.967Z,10.35
2023-05-21T22:30:47.327Z,10.70
2023-05-21T22:33:48.723Z,11.13
2023-05-21T22:36:50.062Z,10.63
2023-05-21T22:39:51.801Z,12.77
2023-05-21T22:42:53.120Z,10.60
2023-05-21T22:45:54.731Z,11.55
2023-05-21T22:48:56.108Z,11.70
2023-05-21T22:51:59.188Z,10.50
2023-05-21T22:55:00.823Z,13.05
2023-05-21T22:58:02.176Z,13.20
2023-05-21T23:01:04.321Z,11.30
2023-05-21T23:04:05.817Z,11.63
2023-05-21T23:07:07.198Z,12.15
2023-05-21T23:10:08.760Z,12.20
2023-05-21T23:13:10.182Z,14.10
2023-05-21T23:16:12.522Z,12.50
2023-05-21T23:19:14.391Z,13.80
2023-05-21T23:22:15.913Z,11.18
2023-05-21T23:25:17.812Z,12.00
2023-05-21T23:28:19.321Z,16.17
2023-05-21T23:31:20.783Z,12.93
2023-05-21T23:34:24.623Z,13.95
2023-05-21T23:37:26.093Z,12.75
2023-05-21T23:40:27.393Z,12.80
2023-05-21T23:43:28.733Z,12.82
2023-05-21T23:46:30.076Z,13.60
2023-05-21T23:49:31.383Z,12.90
2023-05-21T23:52:32.663Z,12.73
2023-05-21T23:55:34.003Z,13.30
2023-05-21T23:58:36.429Z,12.70
